Fleur De Lys, Canada
Current Conditions -  °F | °C
As of 8:30 AM on Thursday 27 Nov 2014 (Local Time) from CWDH Reporting Station
Clear Clear  
Wind Chill: 20°   Ceiling: Unl
Heat Index: 28°   Visibility: 1mi
Dew Point: 23°   Wind: 8mph
Humidity: 81%   Direction: 50°NE
Pressure: 29.92"   Gusts: NA
Location:  50.13°N, 56.1°W
Report Text: CWDH 271130Z AUTO 05007KT 1SM NSC M02/M05 A2992 RMK T10211049 WSI/SWOB
Loading
Personal Weather Stations






























Interactive Weather Map New forecast layout! Learn more

10-Day Weather Forecast

Advertisements
Track Severe Weather on mobile